Portada
METAR-TAF:

METAR-TAF

Aeropuertos :

Aeropuerto Internacional de Jartum

Jartum, Sudán

latitud: 15-36N, longitud: 032-33E, altitud: 382 m

Observación

El informe se hizo hace 21 minutos, a las 14:30 UTC
Viento 11 kt del norte
Temperatura 30°C
Humedad 17%
Presión 1013 hPa
Visibilidad 10 km o más
sin nubes por debajo de 1500 m y sin presencia de cumulonimbus.

METAR: HSSS 181430Z 01011KT CAVOK 30/02 Q1013 NOSIG

Hora: 17:51 (14:51 UTC)

Pronóstico

El informe se hizo hace 3 horas y 51 minutos, a las 11:00 UTC
Pronóstico válido del 18 a las 12 UTC al 19 a las 18 UTC
Viento 10 kt del norte-noreste con ráfagas de 20 kt
Visibilidad 10 km o más
sin nubes por debajo de 1500 m y sin presencia de cumulonimbus.

TAF: HSSS 181100Z 1812/1918 03010G20KT CAVOK

Observaciones y pronósticos meteorológicos de más de 4000 aeropuertos (mensajes METAR y TAF).

Los puntos amarillos y rojos representan las estaciones disponibles.

Ponga el ratón en el punto deseado para ver el nombre de la estación.

Haga clic para ver las observaciones y los pronósticos meteorológicos.

Para cambiar el mapa : haga clic en los botones verdes con una cruz de color negro para hacer un zoom, en el botón verde con un guión para alejar o en las flechas verdes para mapas adyacentes.


METAR-TAF: